sensor_id;sensor_type;location;lat;lon;timestamp;P1;durP1;ratioP1;P2;durP2;ratioP2
20637;SDS011;10478;49.004;8.470;2022-11-20T00:01:43;20.58;;;8.23;;
20637;SDS011;10478;49.004;8.470;2022-11-20T00:04:10;23.55;;;9.63;;
20637;SDS011;10478;49.004;8.470;2022-11-20T00:06:36;13.93;;;7.22;;
20637;SDS011;10478;49.004;8.470;2022-11-20T00:09:02;15.80;;;8.38;;
20637;SDS011;10478;49.004;8.470;2022-11-20T00:11:27;18.60;;;8.05;;
20637;SDS011;10478;49.004;8.470;2022-11-20T00:13:55;14.68;;;7.35;;
20637;SDS011;10478;49.004;8.470;2022-11-20T00:16:24;11.80;;;7.38;;
20637;SDS011;10478;49.004;8.470;2022-11-20T00:18:51;15.68;;;8.32;;
20637;SDS011;10478;49.004;8.470;2022-11-20T00:21:24;16.25;;;8.40;;
20637;SDS011;10478;49.004;8.470;2022-11-20T00:23:51;17.77;;;9.45;;
20637;SDS011;10478;49.004;8.470;2022-11-20T00:26:17;18.40;;;8.80;;
20637;SDS011;10478;49.004;8.470;2022-11-20T00:28:44;19.42;;;8.85;;
20637;SDS011;10478;49.004;8.470;2022-11-20T00:31:18;18.88;;;10.57;;
20637;SDS011;10478;49.004;8.470;2022-11-20T00:33:43;28.05;;;9.95;;
20637;SDS011;10478;49.004;8.470;2022-11-20T00:36:16;15.40;;;8.00;;
20637;SDS011;10478;49.004;8.470;2022-11-20T00:38:43;14.95;;;8.80;;
20637;SDS011;10478;49.004;8.470;2022-11-20T00:41:09;18.38;;;9.98;;
20637;SDS011;10478;49.004;8.470;2022-11-20T00:43:36;20.00;;;9.73;;
20637;SDS011;10478;49.004;8.470;2022-11-20T00:46:03;14.43;;;8.45;;
20637;SDS011;10478;49.004;8.470;2022-11-20T00:48:30;19.02;;;9.32;;
20637;SDS011;10478;49.004;8.470;2022-11-20T00:50:56;18.65;;;10.13;;
20637;SDS011;10478;49.004;8.470;2022-11-20T00:53:22;20.90;;;10.18;;
20637;SDS011;10478;49.004;8.470;2022-11-20T00:58:22;17.38;;;8.70;;
20637;SDS011;10478;49.004;8.470;2022-11-20T01:00:48;17.40;;;9.25;;
20637;SDS011;10478;49.004;8.470;2022-11-20T01:03:14;18.77;;;8.88;;
20637;SDS011;10478;49.004;8.470;2022-11-20T01:05:41;17.75;;;8.60;;
20637;SDS011;10478;49.004;8.470;2022-11-20T01:08:06;16.95;;;8.48;;
20637;SDS011;10478;49.004;8.470;2022-11-20T01:10:31;20.67;;;11.02;;
20637;SDS011;10478;49.004;8.470;2022-11-20T01:12:57;19.92;;;10.80;;
20637;SDS011;10478;49.004;8.470;2022-11-20T01:15:40;24.45;;;10.48;;
20637;SDS011;10478;49.004;8.470;2022-11-20T01:18:06;18.73;;;9.90;;
20637;SDS011;10478;49.004;8.470;2022-11-20T01:20:35;18.95;;;10.05;;
20637;SDS011;10478;49.004;8.470;2022-11-20T01:23:01;18.88;;;9.38;;
20637;SDS011;10478;49.004;8.470;2022-11-20T01:25:27;15.73;;;8.40;;
20637;SDS011;10478;49.004;8.470;2022-11-20T01:27:52;16.90;;;9.75;;
20637;SDS011;10478;49.004;8.470;2022-11-20T01:30:17;18.50;;;9.00;;
20637;SDS011;10478;49.004;8.470;2022-11-20T01:32:43;17.40;;;8.70;;
20637;SDS011;10478;49.004;8.470;2022-11-20T01:35:08;18.27;;;9.57;;
20637;SDS011;10478;49.004;8.470;2022-11-20T01:37:34;17.40;;;8.43;;
20637;SDS011;10478;49.004;8.470;2022-11-20T01:39:59;17.70;;;8.13;;
20637;SDS011;10478;49.004;8.470;2022-11-20T01:42:25;16.75;;;8.88;;
20637;SDS011;10478;49.004;8.470;2022-11-20T01:48:13;17.05;;;9.18;;
20637;SDS011;10478;49.004;8.470;2022-11-20T01:50:39;18.73;;;8.80;;
20637;SDS011;10478;49.004;8.470;2022-11-20T01:53:06;15.57;;;8.52;;
20637;SDS011;10478;49.004;8.470;2022-11-20T01:55:37;17.25;;;8.77;;
20637;SDS011;10478;49.004;8.470;2022-11-20T01:58:06;16.92;;;8.70;;
20637;SDS011;10478;49.004;8.470;2022-11-20T02:00:31;17.10;;;8.85;;
20637;SDS011;10478;49.004;8.470;2022-11-20T02:02:57;14.60;;;8.98;;
20637;SDS011;10478;49.004;8.470;2022-11-20T02:07:49;14.27;;;8.60;;
20637;SDS011;10478;49.004;8.470;2022-11-20T02:10:15;12.68;;;8.23;;
20637;SDS011;10478;49.004;8.470;2022-11-20T02:12:41;15.30;;;8.10;;
20637;SDS011;10478;49.004;8.470;2022-11-20T02:15:25;13.68;;;7.90;;
20637;SDS011;10478;49.004;8.470;2022-11-20T02:17:50;14.50;;;7.28;;
20637;SDS011;10478;49.004;8.470;2022-11-20T02:20:15;13.50;;;8.45;;
20637;SDS011;10478;49.004;8.470;2022-11-20T02:23:01;18.23;;;7.07;;
20637;SDS011;10478;49.004;8.470;2022-11-20T02:25:28;14.32;;;7.90;;
20637;SDS011;10478;49.004;8.470;2022-11-20T02:27:55;14.60;;;7.28;;
20637;SDS011;10478;49.004;8.470;2022-11-20T02:30:21;11.32;;;7.10;;
20637;SDS011;10478;49.004;8.470;2022-11-20T02:32:46;14.45;;;6.50;;
20637;SDS011;10478;49.004;8.470;2022-11-20T02:37:42;12.00;;;7.70;;
20637;SDS011;10478;49.004;8.470;2022-11-20T02:40:08;12.05;;;6.70;;
20637;SDS011;10478;49.004;8.470;2022-11-20T02:42:34;10.40;;;6.20;;
20637;SDS011;10478;49.004;8.470;2022-11-20T02:45:01;11.70;;;5.57;;
20637;SDS011;10478;49.004;8.470;2022-11-20T02:47:26;12.40;;;6.13;;
20637;SDS011;10478;49.004;8.470;2022-11-20T02:49:51;11.07;;;6.28;;
20637;SDS011;10478;49.004;8.470;2022-11-20T02:52:16;12.70;;;6.53;;
20637;SDS011;10478;49.004;8.470;2022-11-20T02:54:42;8.45;;;5.07;;
20637;SDS011;10478;49.004;8.470;2022-11-20T02:57:07;10.63;;;4.95;;
20637;SDS011;10478;49.004;8.470;2022-11-20T02:59:32;12.52;;;5.82;;
20637;SDS011;10478;49.004;8.470;2022-11-20T03:01:58;10.05;;;5.40;;
20637;SDS011;10478;49.004;8.470;2022-11-20T03:04:23;8.60;;;5.53;;
20637;SDS011;10478;49.004;8.470;2022-11-20T03:06:48;8.93;;;5.45;;
20637;SDS011;10478;49.004;8.470;2022-11-20T03:09:14;10.52;;;5.18;;
20637;SDS011;10478;49.004;8.470;2022-11-20T03:11:39;9.57;;;5.00;;
20637;SDS011;10478;49.004;8.470;2022-11-20T03:14:05;8.88;;;4.88;;
20637;SDS011;10478;49.004;8.470;2022-11-20T03:16:30;9.95;;;5.43;;
20637;SDS011;10478;49.004;8.470;2022-11-20T03:18:56;7.88;;;5.00;;
20637;SDS011;10478;49.004;8.470;2022-11-20T03:21:22;7.15;;;4.35;;
20637;SDS011;10478;49.004;8.470;2022-11-20T03:23:47;7.57;;;4.63;;
20637;SDS011;10478;49.004;8.470;2022-11-20T03:26:17;8.77;;;4.72;;
20637;SDS011;10478;49.004;8.470;2022-11-20T03:28:51;7.90;;;4.70;;
20637;SDS011;10478;49.004;8.470;2022-11-20T03:31:18;8.50;;;4.82;;
20637;SDS011;10478;49.004;8.470;2022-11-20T03:33:46;11.88;;;4.78;;
20637;SDS011;10478;49.004;8.470;2022-11-20T03:36:12;9.27;;;5.00;;
20637;SDS011;10478;49.004;8.470;2022-11-20T03:38:39;11.45;;;4.38;;
20637;SDS011;10478;49.004;8.470;2022-11-20T03:41:05;9.23;;;4.43;;
20637;SDS011;10478;49.004;8.470;2022-11-20T03:43:35;10.70;;;4.88;;
20637;SDS011;10478;49.004;8.470;2022-11-20T03:46:00;8.68;;;5.03;;
20637;SDS011;10478;49.004;8.470;2022-11-20T03:48:26;9.82;;;4.82;;
20637;SDS011;10478;49.004;8.470;2022-11-20T03:50:52;12.68;;;5.13;;
20637;SDS011;10478;49.004;8.470;2022-11-20T03:53:18;8.45;;;4.78;;
20637;SDS011;10478;49.004;8.470;2022-11-20T03:55:44;6.88;;;4.38;;
20637;SDS011;10478;49.004;8.470;2022-11-20T03:58:09;9.55;;;4.25;;
20637;SDS011;10478;49.004;8.470;2022-11-20T04:00:35;8.52;;;4.85;;
20637;SDS011;10478;49.004;8.470;2022-11-20T04:03:01;9.52;;;3.55;;
20637;SDS011;10478;49.004;8.470;2022-11-20T04:05:26;7.88;;;5.18;;
20637;SDS011;10478;49.004;8.470;2022-11-20T04:07:52;6.55;;;4.40;;
20637;SDS011;10478;49.004;8.470;2022-11-20T04:10:17;8.00;;;4.43;;
20637;SDS011;10478;49.004;8.470;2022-11-20T04:12:43;8.68;;;3.97;;
20637;SDS011;10478;49.004;8.470;2022-11-20T04:15:08;11.02;;;4.10;;
20637;SDS011;10478;49.004;8.470;2022-11-20T04:17:34;6.20;;;3.80;;
20637;SDS011;10478;49.004;8.470;2022-11-20T04:19:59;5.78;;;4.30;;
20637;SDS011;10478;49.004;8.470;2022-11-20T04:22:25;6.07;;;4.18;;
20637;SDS011;10478;49.004;8.470;2022-11-20T04:24:50;10.05;;;4.57;;
20637;SDS011;10478;49.004;8.470;2022-11-20T04:27:15;9.57;;;4.38;;
20637;SDS011;10478;49.004;8.470;2022-11-20T04:29:41;7.15;;;4.57;;
20637;SDS011;10478;49.004;8.470;2022-11-20T04:32:06;10.27;;;4.80;;
20637;SDS011;10478;49.004;8.470;2022-11-20T04:34:32;8.02;;;4.63;;
20637;SDS011;10478;49.004;8.470;2022-11-20T04:36:57;9.35;;;4.32;;
20637;SDS011;10478;49.004;8.470;2022-11-20T04:39:22;9.90;;;4.32;;
20637;SDS011;10478;49.004;8.470;2022-11-20T04:41:47;7.63;;;4.22;;
20637;SDS011;10478;49.004;8.470;2022-11-20T04:44:13;7.22;;;4.00;;
20637;SDS011;10478;49.004;8.470;2022-11-20T04:46:39;8.93;;;4.07;;
20637;SDS011;10478;49.004;8.470;2022-11-20T04:49:06;8.70;;;3.97;;
20637;SDS011;10478;49.004;8.470;2022-11-20T04:51:31;14.95;;;4.85;;
20637;SDS011;10478;49.004;8.470;2022-11-20T04:53:57;8.52;;;4.30;;
20637;SDS011;10478;49.004;8.470;2022-11-20T04:56:22;12.25;;;4.28;;
20637;SDS011;10478;49.004;8.470;2022-11-20T04:58:48;7.25;;;4.35;;
20637;SDS011;10478;49.004;8.470;2022-11-20T05:01:18;11.02;;;4.95;;
20637;SDS011;10478;49.004;8.470;2022-11-20T05:03:44;5.47;;;3.25;;
20637;SDS011;10478;49.004;8.470;2022-11-20T05:06:14;7.65;;;4.10;;
20637;SDS011;10478;49.004;8.470;2022-11-20T05:08:42;6.88;;;4.07;;
20637;SDS011;10478;49.004;8.470;2022-11-20T05:11:12;8.20;;;4.57;;
20637;SDS011;10478;49.004;8.470;2022-11-20T05:13:38;6.35;;;4.15;;
20637;SDS011;10478;49.004;8.470;2022-11-20T05:16:05;5.97;;;3.72;;
20637;SDS011;10478;49.004;8.470;2022-11-20T05:18:32;7.50;;;3.75;;
20637;SDS011;10478;49.004;8.470;2022-11-20T05:20:58;7.03;;;3.42;;
20637;SDS011;10478;49.004;8.470;2022-11-20T05:23:24;6.57;;;3.90;;
20637;SDS011;10478;49.004;8.470;2022-11-20T05:25:53;6.95;;;3.72;;
20637;SDS011;10478;49.004;8.470;2022-11-20T05:28:20;6.50;;;3.13;;
20637;SDS011;10478;49.004;8.470;2022-11-20T05:30:45;6.20;;;3.80;;
20637;SDS011;10478;49.004;8.470;2022-11-20T05:33:10;8.52;;;3.47;;
20637;SDS011;10478;49.004;8.470;2022-11-20T05:35:36;7.25;;;3.35;;
20637;SDS011;10478;49.004;8.470;2022-11-20T05:38:01;7.57;;;3.92;;
20637;SDS011;10478;49.004;8.470;2022-11-20T05:40:26;4.65;;;3.40;;
20637;SDS011;10478;49.004;8.470;2022-11-20T05:42:52;6.25;;;3.25;;
20637;SDS011;10478;49.004;8.470;2022-11-20T05:45:17;6.60;;;3.33;;
20637;SDS011;10478;49.004;8.470;2022-11-20T05:47:42;5.93;;;3.10;;
20637;SDS011;10478;49.004;8.470;2022-11-20T05:50:08;9.02;;;3.83;;
20637;SDS011;10478;49.004;8.470;2022-11-20T05:52:33;4.35;;;3.03;;
20637;SDS011;10478;49.004;8.470;2022-11-20T05:54:58;6.05;;;3.42;;
20637;SDS011;10478;49.004;8.470;2022-11-20T05:57:24;5.28;;;3.22;;
20637;SDS011;10478;49.004;8.470;2022-11-20T05:59:49;10.90;;;3.40;;
20637;SDS011;10478;49.004;8.470;2022-11-20T06:02:15;7.85;;;3.47;;
20637;SDS011;10478;49.004;8.470;2022-11-20T06:04:40;26.30;;;4.88;;
20637;SDS011;10478;49.004;8.470;2022-11-20T06:07:05;5.95;;;2.83;;
20637;SDS011;10478;49.004;8.470;2022-11-20T06:09:31;5.50;;;2.90;;
20637;SDS011;10478;49.004;8.470;2022-11-20T06:11:57;4.85;;;2.80;;
20637;SDS011;10478;49.004;8.470;2022-11-20T06:14:22;7.63;;;3.15;;
20637;SDS011;10478;49.004;8.470;2022-11-20T06:16:47;4.38;;;2.90;;
20637;SDS011;10478;49.004;8.470;2022-11-20T06:19:13;6.22;;;2.63;;
20637;SDS011;10478;49.004;8.470;2022-11-20T06:21:38;4.50;;;2.13;;
20637;SDS011;10478;49.004;8.470;2022-11-20T06:24:04;4.88;;;2.45;;
20637;SDS011;10478;49.004;8.470;2022-11-20T06:26:29;5.38;;;2.92;;
20637;SDS011;10478;49.004;8.470;2022-11-20T06:28:55;4.28;;;2.35;;
20637;SDS011;10478;49.004;8.470;2022-11-20T06:31:23;4.43;;;2.78;;
20637;SDS011;10478;49.004;8.470;2022-11-20T06:33:50;5.97;;;2.50;;
20637;SDS011;10478;49.004;8.470;2022-11-20T06:36:16;7.55;;;2.72;;
20637;SDS011;10478;49.004;8.470;2022-11-20T06:38:43;6.95;;;2.75;;
20637;SDS011;10478;49.004;8.470;2022-11-20T06:41:10;8.15;;;2.85;;
20637;SDS011;10478;49.004;8.470;2022-11-20T06:43:37;5.32;;;2.25;;
20637;SDS011;10478;49.004;8.470;2022-11-20T06:46:03;4.93;;;2.70;;
20637;SDS011;10478;49.004;8.470;2022-11-20T06:48:28;3.25;;;2.42;;
20637;SDS011;10478;49.004;8.470;2022-11-20T06:50:54;4.47;;;2.92;;
20637;SDS011;10478;49.004;8.470;2022-11-20T06:53:19;5.03;;;2.75;;
20637;SDS011;10478;49.004;8.470;2022-11-20T06:55:46;4.97;;;2.80;;
20637;SDS011;10478;49.004;8.470;2022-11-20T06:58:12;4.15;;;2.72;;
20637;SDS011;10478;49.004;8.470;2022-11-20T07:00:39;7.15;;;3.10;;
20637;SDS011;10478;49.004;8.470;2022-11-20T07:03:05;8.75;;;4.28;;
20637;SDS011;10478;49.004;8.470;2022-11-20T07:05:31;4.00;;;2.90;;
20637;SDS011;10478;49.004;8.470;2022-11-20T07:07:56;4.18;;;2.35;;
20637;SDS011;10478;49.004;8.470;2022-11-20T07:10:22;2.92;;;1.98;;
20637;SDS011;10478;49.004;8.470;2022-11-20T07:12:51;4.72;;;2.65;;
20637;SDS011;10478;49.004;8.470;2022-11-20T07:15:17;3.70;;;2.13;;
20637;SDS011;10478;49.004;8.470;2022-11-20T07:17:43;3.58;;;2.42;;
20637;SDS011;10478;49.004;8.470;2022-11-20T07:20:08;4.60;;;1.83;;
20637;SDS011;10478;49.004;8.470;2022-11-20T07:22:34;2.47;;;1.98;;
20637;SDS011;10478;49.004;8.470;2022-11-20T07:24:59;3.83;;;2.28;;
20637;SDS011;10478;49.004;8.470;2022-11-20T07:27:24;6.72;;;2.47;;
20637;SDS011;10478;49.004;8.470;2022-11-20T07:29:50;3.13;;;1.80;;
20637;SDS011;10478;49.004;8.470;2022-11-20T07:32:15;4.45;;;2.63;;
20637;SDS011;10478;49.004;8.470;2022-11-20T07:34:41;7.32;;;4.63;;
20637;SDS011;10478;49.004;8.470;2022-11-20T07:37:06;5.50;;;3.03;;
20637;SDS011;10478;49.004;8.470;2022-11-20T07:39:31;3.50;;;2.17;;
20637;SDS011;10478;49.004;8.470;2022-11-20T07:41:56;3.47;;;2.10;;
20637;SDS011;10478;49.004;8.470;2022-11-20T07:44:22;5.22;;;2.45;;
20637;SDS011;10478;49.004;8.470;2022-11-20T07:46:47;4.25;;;2.30;;
20637;SDS011;10478;49.004;8.470;2022-11-20T07:49:12;14.70;;;6.97;;
20637;SDS011;10478;49.004;8.470;2022-11-20T07:51:38;18.55;;;9.68;;
20637;SDS011;10478;49.004;8.470;2022-11-20T07:54:03;7.07;;;4.30;;
20637;SDS011;10478;49.004;8.470;2022-11-20T07:56:28;19.45;;;9.15;;
20637;SDS011;10478;49.004;8.470;2022-11-20T07:58:54;26.98;;;14.80;;
20637;SDS011;10478;49.004;8.470;2022-11-20T08:01:19;7.28;;;4.10;;
20637;SDS011;10478;49.004;8.470;2022-11-20T08:03:44;7.80;;;4.88;;
20637;SDS011;10478;49.004;8.470;2022-11-20T08:06:10;9.50;;;4.45;;
20637;SDS011;10478;49.004;8.470;2022-11-20T08:08:35;6.18;;;3.53;;
20637;SDS011;10478;49.004;8.470;2022-11-20T08:11:00;8.50;;;3.33;;
20637;SDS011;10478;49.004;8.470;2022-11-20T08:13:44;4.93;;;2.95;;
20637;SDS011;10478;49.004;8.470;2022-11-20T08:16:28;4.10;;;2.85;;
20637;SDS011;10478;49.004;8.470;2022-11-20T08:18:54;4.10;;;2.60;;
20637;SDS011;10478;49.004;8.470;2022-11-20T08:21:19;4.63;;;2.65;;
20637;SDS011;10478;49.004;8.470;2022-11-20T08:23:45;4.30;;;2.75;;
20637;SDS011;10478;49.004;8.470;2022-11-20T08:26:10;10.95;;;5.32;;
20637;SDS011;10478;49.004;8.470;2022-11-20T08:28:35;10.45;;;6.25;;
20637;SDS011;10478;49.004;8.470;2022-11-20T08:31:01;11.10;;;5.35;;
20637;SDS011;10478;49.004;8.470;2022-11-20T08:33:27;7.68;;;4.95;;
20637;SDS011;10478;49.004;8.470;2022-11-20T08:35:52;12.85;;;5.18;;
20637;SDS011;10478;49.004;8.470;2022-11-20T08:38:17;4.43;;;2.55;;
20637;SDS011;10478;49.004;8.470;2022-11-20T08:40:43;4.20;;;3.22;;
20637;SDS011;10478;49.004;8.470;2022-11-20T08:43:31;5.03;;;2.53;;
20637;SDS011;10478;49.004;8.470;2022-11-20T08:45:56;4.75;;;2.55;;
20637;SDS011;10478;49.004;8.470;2022-11-20T08:48:22;4.10;;;2.35;;
20637;SDS011;10478;49.004;8.470;2022-11-20T08:50:47;6.30;;;2.70;;
20637;SDS011;10478;49.004;8.470;2022-11-20T08:53:13;9.35;;;4.47;;
20637;SDS011;10478;49.004;8.470;2022-11-20T08:55:38;6.45;;;3.40;;
20637;SDS011;10478;49.004;8.470;2022-11-20T08:58:04;6.20;;;2.90;;
20637;SDS011;10478;49.004;8.470;2022-11-20T09:00:30;5.63;;;2.92;;
20637;SDS011;10478;49.004;8.470;2022-11-20T09:02:55;5.13;;;2.58;;
20637;SDS011;10478;49.004;8.470;2022-11-20T09:05:20;5.25;;;2.58;;
20637;SDS011;10478;49.004;8.470;2022-11-20T09:07:46;6.47;;;2.47;;
20637;SDS011;10478;49.004;8.470;2022-11-20T09:10:11;3.28;;;2.58;;
20637;SDS011;10478;49.004;8.470;2022-11-20T09:12:37;7.03;;;2.80;;
20637;SDS011;10478;49.004;8.470;2022-11-20T09:15:03;4.53;;;2.72;;
20637;SDS011;10478;49.004;8.470;2022-11-20T09:17:28;10.68;;;5.07;;
20637;SDS011;10478;49.004;8.470;2022-11-20T09:19:53;7.00;;;4.60;;
20637;SDS011;10478;49.004;8.470;2022-11-20T09:22:19;7.41;;;4.57;;
20637;SDS011;10478;49.004;8.470;2022-11-20T09:24:44;4.30;;;2.50;;
20637;SDS011;10478;49.004;8.470;2022-11-20T09:27:09;6.57;;;3.67;;
20637;SDS011;10478;49.004;8.470;2022-11-20T09:29:35;5.35;;;2.70;;
20637;SDS011;10478;49.004;8.470;2022-11-20T09:32:00;7.03;;;2.97;;
20637;SDS011;10478;49.004;8.470;2022-11-20T09:34:25;4.30;;;2.22;;
20637;SDS011;10478;49.004;8.470;2022-11-20T09:36:51;5.78;;;2.20;;
20637;SDS011;10478;49.004;8.470;2022-11-20T09:39:16;5.47;;;2.67;;
20637;SDS011;10478;49.004;8.470;2022-11-20T09:56:02;4.97;;;2.30;;
20637;SDS011;10478;49.004;8.470;2022-11-20T10:01:16;5.20;;;3.25;;
20637;SDS011;10478;49.004;8.470;2022-11-20T10:03:54;5.63;;;2.67;;
20637;SDS011;10478;49.004;8.470;2022-11-20T10:09:05;6.57;;;3.70;;
20637;SDS011;10478;49.004;8.470;2022-11-20T10:11:43;19.50;;;5.75;;
20637;SDS011;10478;49.004;8.470;2022-11-20T10:25:18;4.20;;;2.45;;
20637;SDS011;10478;49.004;8.470;2022-11-20T10:31:02;9.52;;;3.15;;
20637;SDS011;10478;49.004;8.470;2022-11-20T10:33:39;6.43;;;3.28;;
20637;SDS011;10478;49.004;8.470;2022-11-20T10:38:39;6.63;;;3.13;;
20637;SDS011;10478;49.004;8.470;2022-11-20T10:41:16;4.95;;;2.53;;
20637;SDS011;10478;49.004;8.470;2022-11-20T10:44:02;5.25;;;3.00;;
20637;SDS011;10478;49.004;8.470;2022-11-20T10:46:32;5.22;;;3.35;;
20637;SDS011;10478;49.004;8.470;2022-11-20T10:49:02;4.90;;;3.08;;
20637;SDS011;10478;49.004;8.470;2022-11-20T10:51:32;4.57;;;3.03;;
20637;SDS011;10478;49.004;8.470;2022-11-20T11:02:24;5.15;;;2.95;;
20637;SDS011;10478;49.004;8.470;2022-11-20T11:04:58;6.30;;;2.60;;
20637;SDS011;10478;49.004;8.470;2022-11-20T11:07:39;5.53;;;2.80;;
20637;SDS011;10478;49.004;8.470;2022-11-20T11:10:13;3.95;;;2.72;;
20637;SDS011;10478;49.004;8.470;2022-11-20T11:12:43;6.25;;;3.22;;
20637;SDS011;10478;49.004;8.470;2022-11-20T11:15:13;4.97;;;2.70;;
20637;SDS011;10478;49.004;8.470;2022-11-20T11:17:49;4.80;;;2.60;;
20637;SDS011;10478;49.004;8.470;2022-11-20T11:22:46;5.05;;;3.03;;
20637;SDS011;10478;49.004;8.470;2022-11-20T11:25:31;5.30;;;2.97;;
20637;SDS011;10478;49.004;8.470;2022-11-20T11:28:04;4.63;;;2.60;;
20637;SDS011;10478;49.004;8.470;2022-11-20T11:30:43;4.70;;;2.67;;
20637;SDS011;10478;49.004;8.470;2022-11-20T11:33:10;4.18;;;2.83;;
20637;SDS011;10478;49.004;8.470;2022-11-20T11:35:49;6.93;;;2.38;;
20637;SDS011;10478;49.004;8.470;2022-11-20T11:38:26;7.83;;;3.67;;
20637;SDS011;10478;49.004;8.470;2022-11-20T11:40:53;4.25;;;2.15;;
20637;SDS011;10478;49.004;8.470;2022-11-20T11:43:20;4.55;;;2.28;;
20637;SDS011;10478;49.004;8.470;2022-11-20T11:46:10;3.35;;;1.98;;
20637;SDS011;10478;49.004;8.470;2022-11-20T11:51:21;18.30;;;8.93;;
20637;SDS011;10478;49.004;8.470;2022-11-20T11:53:46;11.40;;;4.25;;
20637;SDS011;10478;49.004;8.470;2022-11-20T11:56:12;6.00;;;2.47;;
20637;SDS011;10478;49.004;8.470;2022-11-20T11:58:43;5.03;;;1.95;;
20637;SDS011;10478;49.004;8.470;2022-11-20T12:01:54;2.95;;;1.98;;
20637;SDS011;10478;49.004;8.470;2022-11-20T12:06:44;6.40;;;2.13;;
20637;SDS011;10478;49.004;8.470;2022-11-20T12:09:11;7.13;;;2.33;;
20637;SDS011;10478;49.004;8.470;2022-11-20T12:11:45;5.38;;;1.80;;
20637;SDS011;10478;49.004;8.470;2022-11-20T12:16:48;8.77;;;1.75;;
20637;SDS011;10478;49.004;8.470;2022-11-20T12:19:15;5.05;;;1.60;;
20637;SDS011;10478;49.004;8.470;2022-11-20T12:27:26;7.05;;;2.13;;
20637;SDS011;10478;49.004;8.470;2022-11-20T12:30:14;5.80;;;2.80;;
20637;SDS011;10478;49.004;8.470;2022-11-20T12:59:22;4.35;;;1.00;;
20637;SDS011;10478;49.004;8.470;2022-11-20T13:02:10;1.73;;;1.02;;
20637;SDS011;10478;49.004;8.470;2022-11-20T13:04:55;2.28;;;1.17;;
20637;SDS011;10478;49.004;8.470;2022-11-20T13:07:35;2.40;;;0.83;;
20637;SDS011;10478;49.004;8.470;2022-11-20T13:10:01;3.40;;;0.85;;
20637;SDS011;10478;49.004;8.470;2022-11-20T13:17:51;3.85;;;1.80;;
20637;SDS011;10478;49.004;8.470;2022-11-20T13:20:19;3.92;;;0.95;;
20637;SDS011;10478;49.004;8.470;2022-11-20T13:27:51;2.97;;;1.02;;
20637;SDS011;10478;49.004;8.470;2022-11-20T13:30:18;2.03;;;0.88;;
20637;SDS011;10478;49.004;8.470;2022-11-20T13:40:33;2.35;;;0.80;;
20637;SDS011;10478;49.004;8.470;2022-11-20T13:43:07;3.53;;;1.15;;
20637;SDS011;10478;49.004;8.470;2022-11-20T13:45:41;3.38;;;0.77;;
20637;SDS011;10478;49.004;8.470;2022-11-20T13:48:22;2.47;;;0.60;;
20637;SDS011;10478;49.004;8.470;2022-11-20T13:50:54;3.05;;;1.15;;
20637;SDS011;10478;49.004;8.470;2022-11-20T13:53:31;2.00;;;0.93;;
20637;SDS011;10478;49.004;8.470;2022-11-20T13:56:15;2.25;;;0.90;;
20637;SDS011;10478;49.004;8.470;2022-11-20T14:01:41;2.55;;;1.05;;
20637;SDS011;10478;49.004;8.470;2022-11-20T14:04:09;1.42;;;1.00;;
20637;SDS011;10478;49.004;8.470;2022-11-20T14:06:44;2.70;;;1.02;;
20637;SDS011;10478;49.004;8.470;2022-11-20T14:09:12;5.22;;;0.75;;
20637;SDS011;10478;49.004;8.470;2022-11-20T14:11:45;1.85;;;0.80;;
20637;SDS011;10478;49.004;8.470;2022-11-20T14:14:22;1.77;;;1.00;;
20637;SDS011;10478;49.004;8.470;2022-11-20T14:16:48;3.90;;;1.30;;
20637;SDS011;10478;49.004;8.470;2022-11-20T14:21:45;3.15;;;0.90;;
20637;SDS011;10478;49.004;8.470;2022-11-20T14:24:12;1.80;;;0.73;;
20637;SDS011;10478;49.004;8.470;2022-11-20T14:26:42;1.52;;;0.70;;
20637;SDS011;10478;49.004;8.470;2022-11-20T14:29:14;5.22;;;1.27;;
20637;SDS011;10478;49.004;8.470;2022-11-20T14:31:42;3.10;;;0.82;;
20637;SDS011;10478;49.004;8.470;2022-11-20T14:34:27;3.08;;;1.10;;
20637;SDS011;10478;49.004;8.470;2022-11-20T14:36:56;2.13;;;0.70;;
20637;SDS011;10478;49.004;8.470;2022-11-20T14:39:25;1.25;;;0.60;;
20637;SDS011;10478;49.004;8.470;2022-11-20T14:41:54;1.50;;;0.98;;
20637;SDS011;10478;49.004;8.470;2022-11-20T14:44:21;12.82;;;6.15;;
20637;SDS011;10478;49.004;8.470;2022-11-20T14:46:51;33.00;;;12.05;;
20637;SDS011;10478;49.004;8.470;2022-11-20T14:49:17;27.55;;;10.57;;
20637;SDS011;10478;49.004;8.470;2022-11-20T14:51:42;6.00;;;3.00;;
20637;SDS011;10478;49.004;8.470;2022-11-20T14:54:17;17.02;;;7.55;;
20637;SDS011;10478;49.004;8.470;2022-11-20T14:57:03;3.35;;;1.25;;
20637;SDS011;10478;49.004;8.470;2022-11-20T14:59:33;2.50;;;1.00;;
20637;SDS011;10478;49.004;8.470;2022-11-20T15:02:00;4.47;;;1.27;;
20637;SDS011;10478;49.004;8.470;2022-11-20T15:04:26;2.38;;;0.95;;
20637;SDS011;10478;49.004;8.470;2022-11-20T15:06:53;2.70;;;1.20;;
20637;SDS011;10478;49.004;8.470;2022-11-20T15:09:20;2.78;;;0.70;;
20637;SDS011;10478;49.004;8.470;2022-11-20T15:11:57;4.00;;;1.20;;
20637;SDS011;10478;49.004;8.470;2022-11-20T15:14:24;2.17;;;1.08;;
20637;SDS011;10478;49.004;8.470;2022-11-20T15:16:50;1.67;;;0.80;;
20637;SDS011;10478;49.004;8.470;2022-11-20T15:19:20;4.45;;;1.27;;
20637;SDS011;10478;49.004;8.470;2022-11-20T15:21:47;2.17;;;1.02;;
20637;SDS011;10478;49.004;8.470;2022-11-20T15:24:12;1.15;;;0.80;;
20637;SDS011;10478;49.004;8.470;2022-11-20T15:26:38;4.65;;;1.40;;
20637;SDS011;10478;49.004;8.470;2022-11-20T15:29:09;7.38;;;1.50;;
20637;SDS011;10478;49.004;8.470;2022-11-20T15:31:36;4.35;;;1.27;;
20637;SDS011;10478;49.004;8.470;2022-11-20T15:34:02;2.45;;;1.15;;
20637;SDS011;10478;49.004;8.470;2022-11-20T15:36:27;2.42;;;0.90;;
20637;SDS011;10478;49.004;8.470;2022-11-20T15:38:53;2.08;;;1.00;;
20637;SDS011;10478;49.004;8.470;2022-11-20T15:41:18;6.55;;;1.02;;
20637;SDS011;10478;49.004;8.470;2022-11-20T15:43:43;2.30;;;1.30;;
20637;SDS011;10478;49.004;8.470;2022-11-20T15:46:11;3.08;;;1.17;;
20637;SDS011;10478;49.004;8.470;2022-11-20T15:48:39;2.20;;;1.02;;
20637;SDS011;10478;49.004;8.470;2022-11-20T15:53:34;4.63;;;1.48;;
20637;SDS011;10478;49.004;8.470;2022-11-20T15:56:00;5.00;;;1.20;;
20637;SDS011;10478;49.004;8.470;2022-11-20T15:58:26;5.07;;;1.50;;
20637;SDS011;10478;49.004;8.470;2022-11-20T16:00:51;3.67;;;1.30;;
20637;SDS011;10478;49.004;8.470;2022-11-20T16:03:17;3.05;;;1.05;;
20637;SDS011;10478;49.004;8.470;2022-11-20T16:05:43;1.35;;;0.60;;
20637;SDS011;10478;49.004;8.470;2022-11-20T16:08:08;3.10;;;1.05;;
20637;SDS011;10478;49.004;8.470;2022-11-20T16:10:33;1.75;;;0.98;;
20637;SDS011;10478;49.004;8.470;2022-11-20T16:12:59;5.00;;;0.93;;
20637;SDS011;10478;49.004;8.470;2022-11-20T16:15:49;3.13;;;0.90;;
20637;SDS011;10478;49.004;8.470;2022-11-20T16:18:18;2.90;;;0.70;;
20637;SDS011;10478;49.004;8.470;2022-11-20T16:20:45;1.55;;;0.80;;
20637;SDS011;10478;49.004;8.470;2022-11-20T16:23:11;4.15;;;0.98;;
20637;SDS011;10478;49.004;8.470;2022-11-20T16:25:37;1.67;;;0.82;;
20637;SDS011;10478;49.004;8.470;2022-11-20T16:28:02;3.33;;;0.75;;
20637;SDS011;10478;49.004;8.470;2022-11-20T16:30:28;3.38;;;1.23;;
20637;SDS011;10478;49.004;8.470;2022-11-20T16:32:53;1.08;;;0.60;;
20637;SDS011;10478;49.004;8.470;2022-11-20T16:35:18;1.55;;;0.90;;
20637;SDS011;10478;49.004;8.470;2022-11-20T16:37:44;4.10;;;1.13;;
20637;SDS011;10478;49.004;8.470;2022-11-20T16:40:10;2.33;;;1.23;;
20637;SDS011;10478;49.004;8.470;2022-11-20T16:42:35;2.28;;;1.05;;
20637;SDS011;10478;49.004;8.470;2022-11-20T16:45:02;3.45;;;1.35;;
20637;SDS011;10478;49.004;8.470;2022-11-20T16:47:32;7.18;;;1.38;;
20637;SDS011;10478;49.004;8.470;2022-11-20T16:49:59;5.50;;;1.83;;
20637;SDS011;10478;49.004;8.470;2022-11-20T16:52:24;3.30;;;1.42;;